sensor_id;sensor_type;location;lat;lon;timestamp;pressure;altitude;pressure_sealevel;temperature;humidity
9746;BME280;4912;50.836;12.958;2023-05-10T00:01:13;97169.69;;;14.66;48.75
9746;BME280;4912;50.836;12.958;2023-05-10T00:03:45;97167.41;;;14.64;49.00
9746;BME280;4912;50.836;12.958;2023-05-10T00:06:17;97160.34;;;14.63;48.80
9746;BME280;4912;50.836;12.958;2023-05-10T00:08:47;97160.59;;;14.60;48.66
9746;BME280;4912;50.836;12.958;2023-05-10T00:11:17;97173.22;;;14.72;48.74
9746;BME280;4912;50.836;12.958;2023-05-10T00:13:48;97154.97;;;14.77;48.82
9746;BME280;4912;50.836;12.958;2023-05-10T00:16:24;97170.72;;;14.63;48.65
9746;BME280;4912;50.836;12.958;2023-05-10T00:18:54;97160.84;;;14.56;49.06
9746;BME280;4912;50.836;12.958;2023-05-10T00:21:25;97159.59;;;14.52;49.17
9746;BME280;4912;50.836;12.958;2023-05-10T00:23:57;97166.44;;;14.51;49.20
9746;BME280;4912;50.836;12.958;2023-05-10T00:26:29;97159.88;;;14.54;49.47
9746;BME280;4912;50.836;12.958;2023-05-10T00:28:59;97158.34;;;14.47;49.37
9746;BME280;4912;50.836;12.958;2023-05-10T00:31:32;97166.19;;;14.54;49.48
9746;BME280;4912;50.836;12.958;2023-05-10T00:34:03;97159.13;;;14.37;49.89
9746;BME280;4912;50.836;12.958;2023-05-10T00:36:33;97160.63;;;14.38;49.87
9746;BME280;4912;50.836;12.958;2023-05-10T00:39:03;97142.69;;;14.39;50.11
9746;BME280;4912;50.836;12.958;2023-05-10T00:41:33;97153.56;;;14.37;50.13
9746;BME280;4912;50.836;12.958;2023-05-10T00:44:05;97159.91;;;14.37;50.06
9746;BME280;4912;50.836;12.958;2023-05-10T00:46:38;97157.06;;;14.31;50.38
9746;BME280;4912;50.836;12.958;2023-05-10T00:49:09;97145.97;;;14.26;50.31
9746;BME280;4912;50.836;12.958;2023-05-10T00:51:43;97152.28;;;14.26;50.55
9746;BME280;4912;50.836;12.958;2023-05-10T00:54:16;97152.81;;;14.08;50.79
9746;BME280;4912;50.836;12.958;2023-05-10T00:56:50;97140.19;;;14.13;50.97
9746;BME280;4912;50.836;12.958;2023-05-10T00:59:21;97147.25;;;14.19;50.90
9746;BME280;4912;50.836;12.958;2023-05-10T01:01:54;97142.69;;;14.16;50.96
9746;BME280;4912;50.836;12.958;2023-05-10T01:04:25;97146.75;;;14.10;51.06
9746;BME280;4912;50.836;12.958;2023-05-10T01:06:58;97137.16;;;14.00;51.32
9746;BME280;4912;50.836;12.958;2023-05-10T01:09:31;97126.53;;;14.04;51.54
9746;BME280;4912;50.836;12.958;2023-05-10T01:12:02;97142.44;;;14.03;51.69
9746;BME280;4912;50.836;12.958;2023-05-10T01:14:35;97133.88;;;13.96;51.81
9746;BME280;4912;50.836;12.958;2023-05-10T01:17:08;97127.78;;;14.08;51.51
9746;BME280;4912;50.836;12.958;2023-05-10T01:19:40;97135.38;;;14.02;51.70
9746;BME280;4912;50.836;12.958;2023-05-10T01:22:15;97127.28;;;14.04;51.54
9746;BME280;4912;50.836;12.958;2023-05-10T01:25:04;97128.28;;;14.12;51.59
9746;BME280;4912;50.836;12.958;2023-05-10T01:31:07;97128.84;;;13.72;52.48
9746;BME280;4912;50.836;12.958;2023-05-10T01:33:47;97130.84;;;13.77;52.78
9746;BME280;4912;50.836;12.958;2023-05-10T01:36:24;97135.16;;;13.89;52.22
9746;BME280;4912;50.836;12.958;2023-05-10T01:39:05;97131.84;;;13.96;52.24
9746;BME280;4912;50.836;12.958;2023-05-10T01:41:41;97124.28;;;13.80;52.46
9746;BME280;4912;50.836;12.958;2023-05-10T01:44:24;97118.72;;;13.74;52.65
9746;BME280;4912;50.836;12.958;2023-05-10T01:47:04;97121.75;;;13.76;52.87
9746;BME280;4912;50.836;12.958;2023-05-10T01:49:40;97114.66;;;13.81;52.52
9746;BME280;4912;50.836;12.958;2023-05-10T01:52:14;97114.66;;;13.81;52.52
9746;BME280;4912;50.836;12.958;2023-05-10T01:54:48;97118.47;;;13.94;52.41
9746;BME280;4912;50.836;12.958;2023-05-10T01:57:23;97118.69;;;14.02;51.90
9746;BME280;4912;50.836;12.958;2023-05-10T01:59:56;97122.22;;;13.97;52.15
9746;BME280;4912;50.836;12.958;2023-05-10T02:02:27;97131.59;;;13.83;52.34
9746;BME280;4912;50.836;12.958;2023-05-10T02:05:07;97143.72;;;13.74;52.58
9746;BME280;4912;50.836;12.958;2023-05-10T02:07:42;97149.03;;;13.56;53.13
9746;BME280;4912;50.836;12.958;2023-05-10T02:10:14;97151.50;;;13.31;54.14
9746;BME280;4912;50.836;12.958;2023-05-10T02:12:47;97148.25;;;13.38;54.12
9746;BME280;4912;50.836;12.958;2023-05-10T02:15:19;97153.75;;;13.22;54.46
9746;BME280;4912;50.836;12.958;2023-05-10T02:17:55;97151.47;;;13.20;54.53
9746;BME280;4912;50.836;12.958;2023-05-10T02:20:32;97152.00;;;13.13;54.85
9746;BME280;4912;50.836;12.958;2023-05-10T02:23:04;97159.84;;;13.26;54.55
9746;BME280;4912;50.836;12.958;2023-05-10T02:25:35;97155.56;;;13.30;54.32
9746;BME280;4912;50.836;12.958;2023-05-10T02:28:06;97152.53;;;13.28;54.36
9746;BME280;4912;50.836;12.958;2023-05-10T02:30:39;97143.97;;;13.43;54.11
9746;BME280;4912;50.836;12.958;2023-05-10T02:33:12;97147.00;;;13.50;53.78
9746;BME280;4912;50.836;12.958;2023-05-10T02:35:47;97142.69;;;13.49;54.01
9746;BME280;4912;50.836;12.958;2023-05-10T02:38:19;97148.78;;;13.53;53.83
9746;BME280;4912;50.836;12.958;2023-05-10T02:40:50;97151.56;;;13.65;53.50
9746;BME280;4912;50.836;12.958;2023-05-10T02:43:21;97146.78;;;13.65;53.54
9746;BME280;4912;50.836;12.958;2023-05-10T02:45:53;97139.44;;;13.62;53.59
9746;BME280;4912;50.836;12.958;2023-05-10T02:48:26;97149.28;;;13.63;53.75
9746;BME280;4912;50.836;12.958;2023-05-10T02:51:00;97146.25;;;13.67;53.66
9746;BME280;4912;50.836;12.958;2023-05-10T02:53:35;97149.03;;;13.67;53.42
9746;BME280;4912;50.836;12.958;2023-05-10T02:56:11;97149.78;;;13.50;53.88
9746;BME280;4912;50.836;12.958;2023-05-10T02:58:44;97143.97;;;13.48;53.98
9746;BME280;4912;50.836;12.958;2023-05-10T03:01:14;97141.19;;;13.48;54.16
9746;BME280;4912;50.836;12.958;2023-05-10T03:03:44;97147.00;;;13.50;54.02
9746;BME280;4912;50.836;12.958;2023-05-10T03:06:17;97151.03;;;13.38;54.37
9746;BME280;4912;50.836;12.958;2023-05-10T03:08:48;97140.41;;;13.31;54.40
9746;BME280;4912;50.836;12.958;2023-05-10T03:11:28;97147.22;;;13.25;54.81
9746;BME280;4912;50.836;12.958;2023-05-10T03:14:16;97148.97;;;13.22;54.92
9746;BME280;4912;50.836;12.958;2023-05-10T03:16:52;97161.88;;;13.25;54.88
9746;BME280;4912;50.836;12.958;2023-05-10T03:19:27;97185.47;;;12.93;55.88
9746;BME280;4912;50.836;12.958;2023-05-10T03:22:06;97178.66;;;12.94;55.95
9746;BME280;4912;50.836;12.958;2023-05-10T03:24:40;97172.88;;;13.03;55.74
9746;BME280;4912;50.836;12.958;2023-05-10T03:27:11;97180.91;;;12.90;55.85
9746;BME280;4912;50.836;12.958;2023-05-10T03:29:46;97183.41;;;12.82;56.24
9746;BME280;4912;50.836;12.958;2023-05-10T03:32:17;97181.22;;;12.55;57.10
9746;BME280;4912;50.836;12.958;2023-05-10T03:34:51;97184.56;;;12.64;56.93
9746;BME280;4912;50.836;12.958;2023-05-10T03:37:26;97183.59;;;12.73;56.87
9746;BME280;4912;50.836;12.958;2023-05-10T03:39:56;97178.03;;;12.73;56.68
9746;BME280;4912;50.836;12.958;2023-05-10T03:42:31;97182.88;;;12.78;56.38
9746;BME280;4912;50.836;12.958;2023-05-10T03:45:01;97184.34;;;12.68;56.98
9746;BME280;4912;50.836;12.958;2023-05-10T03:47:32;97188.63;;;12.69;57.23
9746;BME280;4912;50.836;12.958;2023-05-10T03:50:03;97184.63;;;12.76;57.05
9746;BME280;4912;50.836;12.958;2023-05-10T03:52:36;97186.69;;;12.86;56.29
9746;BME280;4912;50.836;12.958;2023-05-10T03:55:08;97174.59;;;12.84;56.41
9746;BME280;4912;50.836;12.958;2023-05-10T03:57:38;97167.53;;;12.94;56.26
9746;BME280;4912;50.836;12.958;2023-05-10T04:00:09;97164.53;;;13.03;55.93
9746;BME280;4912;50.836;12.958;2023-05-10T04:02:40;97169.09;;;13.06;55.94
9746;BME280;4912;50.836;12.958;2023-05-10T04:05:17;97159.81;;;13.15;55.63
9746;BME280;4912;50.836;12.958;2023-05-10T04:07:50;97163.63;;;13.28;55.42
9746;BME280;4912;50.836;12.958;2023-05-10T04:10:20;97151.28;;;13.35;55.84
9746;BME280;4912;50.836;12.958;2023-05-10T04:12:50;97152.53;;;13.39;55.36
9746;BME280;4912;50.836;12.958;2023-05-10T04:15:20;97144.97;;;13.34;55.18
9746;BME280;4912;50.836;12.958;2023-05-10T04:17:51;97145.97;;;13.37;55.52
9746;BME280;4912;50.836;12.958;2023-05-10T04:20:23;97142.94;;;13.29;55.33
9746;BME280;4912;50.836;12.958;2023-05-10T04:22:56;97142.44;;;13.36;55.44
9746;BME280;4912;50.836;12.958;2023-05-10T04:25:26;97134.13;;;13.42;55.26
9746;BME280;4912;50.836;12.958;2023-05-10T04:27:56;97149.00;;;13.44;56.97
9746;BME280;4912;50.836;12.958;2023-05-10T04:30:27;97149.03;;;13.56;56.69
9746;BME280;4912;50.836;12.958;2023-05-10T04:32:57;97151.81;;;13.61;55.93
9746;BME280;4912;50.836;12.958;2023-05-10T04:35:28;97154.59;;;13.61;54.87
9746;BME280;4912;50.836;12.958;2023-05-10T04:38:01;97143.72;;;13.63;54.66
9746;BME280;4912;50.836;12.958;2023-05-10T04:40:31;97144.75;;;13.82;54.36
9746;BME280;4912;50.836;12.958;2023-05-10T04:43:02;97143.72;;;13.80;54.05
9746;BME280;4912;50.836;12.958;2023-05-10T04:45:32;97140.94;;;13.74;54.29
9746;BME280;4912;50.836;12.958;2023-05-10T04:48:03;97141.44;;;13.73;54.47
9746;BME280;4912;50.836;12.958;2023-05-10T04:50:34;97138.44;;;13.71;54.51
9746;BME280;4912;50.836;12.958;2023-05-10T04:53:07;97152.34;;;13.71;54.54
9746;BME280;4912;50.836;12.958;2023-05-10T04:55:37;97153.09;;;13.66;54.90
9746;BME280;4912;50.836;12.958;2023-05-10T04:58:07;97144.25;;;13.89;54.49
9746;BME280;4912;50.836;12.958;2023-05-10T05:00:38;97142.22;;;14.07;54.17
9746;BME280;4912;50.836;12.958;2023-05-10T05:03:08;97139.41;;;14.23;53.93
9746;BME280;4912;50.836;12.958;2023-05-10T05:05:38;97148.75;;;14.20;53.10
9746;BME280;4912;50.836;12.958;2023-05-10T05:08:11;97150.28;;;14.10;53.33
9746;BME280;4912;50.836;12.958;2023-05-10T05:10:42;97144.97;;;14.23;53.40
9746;BME280;4912;50.836;12.958;2023-05-10T05:13:12;97132.28;;;14.33;52.84
9746;BME280;4912;50.836;12.958;2023-05-10T05:15:42;97154.56;;;14.39;52.89
9746;BME280;4912;50.836;12.958;2023-05-10T05:18:12;97152.53;;;14.40;52.77
9746;BME280;4912;50.836;12.958;2023-05-10T05:20:43;97145.19;;;14.48;52.79
9746;BME280;4912;50.836;12.958;2023-05-10T05:23:15;97156.31;;;14.59;52.55
9746;BME280;4912;50.836;12.958;2023-05-10T05:25:47;97153.00;;;14.66;52.64
9746;BME280;4912;50.836;12.958;2023-05-10T05:28:17;97150.19;;;14.71;52.08
9746;BME280;4912;50.836;12.958;2023-05-10T05:30:48;97142.78;;;14.85;52.02
9746;BME280;4912;50.836;12.958;2023-05-10T05:33:18;97142.56;;;14.83;51.57
9746;BME280;4912;50.836;12.958;2023-05-10T05:35:48;97143.72;;;15.04;51.67
9746;BME280;4912;50.836;12.958;2023-05-10T05:38:21;97144.16;;;15.20;51.34
9746;BME280;4912;50.836;12.958;2023-05-10T05:40:51;97139.97;;;15.43;51.24
9746;BME280;4912;50.836;12.958;2023-05-10T05:43:21;97143.75;;;15.40;50.70
9746;BME280;4912;50.836;12.958;2023-05-10T05:45:51;97146.00;;;15.52;50.70
9746;BME280;4912;50.836;12.958;2023-05-10T05:48:24;97136.47;;;15.72;50.01
9746;BME280;4912;50.836;12.958;2023-05-10T05:50:55;97151.06;;;15.89;49.99
9746;BME280;4912;50.836;12.958;2023-05-10T05:53:28;97147.78;;;15.85;49.45
9746;BME280;4912;50.836;12.958;2023-05-10T05:55:58;97163.13;;;15.97;49.13
9746;BME280;4912;50.836;12.958;2023-05-10T05:58:28;97148.88;;;16.07;49.05
9746;BME280;4912;50.836;12.958;2023-05-10T06:00:58;97149.59;;;16.37;49.08
9746;BME280;4912;50.836;12.958;2023-05-10T06:03:29;97147.38;;;16.30;48.46
9746;BME280;4912;50.836;12.958;2023-05-10T06:06:00;97157.09;;;16.23;48.03
9746;BME280;4912;50.836;12.958;2023-05-10T06:08:33;97174.22;;;16.09;48.64
9746;BME280;4912;50.836;12.958;2023-05-10T06:11:03;97164.41;;;16.02;49.16
9746;BME280;4912;50.836;12.958;2023-05-10T06:13:34;97168.16;;;16.05;48.79
9746;BME280;4912;50.836;12.958;2023-05-10T06:16:04;97173.78;;;15.99;48.83
9746;BME280;4912;50.836;12.958;2023-05-10T06:18:35;97184.50;;;15.95;48.80
9746;BME280;4912;50.836;12.958;2023-05-10T06:21:05;97173.59;;;15.91;49.56
9746;BME280;4912;50.836;12.958;2023-05-10T06:23:38;97174.56;;;16.00;48.88
9746;BME280;4912;50.836;12.958;2023-05-10T06:26:08;97174.16;;;16.14;48.99
9746;BME280;4912;50.836;12.958;2023-05-10T06:28:40;97173.19;;;16.12;49.31
9746;BME280;4912;50.836;12.958;2023-05-10T06:31:10;97174.78;;;16.02;48.81
9746;BME280;4912;50.836;12.958;2023-05-10T06:33:41;97178.56;;;16.04;49.56
9746;BME280;4912;50.836;12.958;2023-05-10T06:36:14;97172.19;;;16.09;49.85
9746;BME280;4912;50.836;12.958;2023-05-10T06:38:49;97171.94;;;16.37;49.22
9746;BME280;4912;50.836;12.958;2023-05-10T06:41:19;97170.56;;;16.49;48.86
9746;BME280;4912;50.836;12.958;2023-05-10T06:43:50;97180.88;;;16.60;48.52
9746;BME280;4912;50.836;12.958;2023-05-10T06:46:20;97170.94;;;16.59;48.25
9746;BME280;4912;50.836;12.958;2023-05-10T06:48:51;97173.97;;;16.85;47.89
9746;BME280;4912;50.836;12.958;2023-05-10T06:51:21;97174.59;;;16.97;47.58
9746;BME280;4912;50.836;12.958;2023-05-10T06:53:54;97183.91;;;17.05;46.69
9746;BME280;4912;50.836;12.958;2023-05-10T06:56:24;97183.16;;;17.04;47.22
9746;BME280;4912;50.836;12.958;2023-05-10T06:58:54;97173.09;;;16.96;47.52
9746;BME280;4912;50.836;12.958;2023-05-10T07:01:27;97182.25;;;17.15;47.22
9746;BME280;4912;50.836;12.958;2023-05-10T07:04:00;97172.06;;;17.36;46.93
9746;BME280;4912;50.836;12.958;2023-05-10T07:06:30;97173.34;;;17.54;47.03
9746;BME280;4912;50.836;12.958;2023-05-10T07:09:04;97177.66;;;17.36;46.92
9746;BME280;4912;50.836;12.958;2023-05-10T07:11:34;97180.59;;;17.44;46.50
9746;BME280;4912;50.836;12.958;2023-05-10T07:14:05;97184.53;;;17.16;46.32
9746;BME280;4912;50.836;12.958;2023-05-10T07:16:35;97183.25;;;17.17;47.01
9746;BME280;4912;50.836;12.958;2023-05-10T07:19:05;97176.91;;;17.36;46.88
9746;BME280;4912;50.836;12.958;2023-05-10T07:21:35;97193.28;;;17.26;46.39
9746;BME280;4912;50.836;12.958;2023-05-10T07:24:09;97183.50;;;17.19;46.60
9746;BME280;4912;50.836;12.958;2023-05-10T07:26:40;97194.88;;;17.22;46.35
9746;BME280;4912;50.836;12.958;2023-05-10T07:29:10;97186.81;;;17.37;46.77
9746;BME280;4912;50.836;12.958;2023-05-10T07:31:41;97193.69;;;17.73;45.86
9746;BME280;4912;50.836;12.958;2023-05-10T07:34:11;97198.38;;;18.16;45.15
9746;BME280;4912;50.836;12.958;2023-05-10T07:36:41;97190.13;;;18.23;44.63
9746;BME280;4912;50.836;12.958;2023-05-10T07:39:14;97193.72;;;18.50;44.04
9746;BME280;4912;50.836;12.958;2023-05-10T07:41:53;97197.34;;;18.77;43.45
9746;BME280;4912;50.836;12.958;2023-05-10T07:44:23;97200.91;;;18.91;43.93
9746;BME280;4912;50.836;12.958;2023-05-10T07:46:53;97209.63;;;18.61;43.48
9746;BME280;4912;50.836;12.958;2023-05-10T07:49:33;97206.75;;;18.48;44.13
9746;BME280;4912;50.836;12.958;2023-05-10T07:52:03;97201.00;;;18.72;44.02
9746;BME280;4912;50.836;12.958;2023-05-10T07:54:36;97201.22;;;18.87;43.99
9746;BME280;4912;50.836;12.958;2023-05-10T07:57:06;97230.63;;;18.80;43.58
9746;BME280;4912;50.836;12.958;2023-05-10T07:59:36;97214.22;;;18.58;44.44
9746;BME280;4912;50.836;12.958;2023-05-10T08:02:07;97216.50;;;18.60;44.58
9746;BME280;4912;50.836;12.958;2023-05-10T08:04:37;97219.69;;;18.51;44.79
9746;BME280;4912;50.836;12.958;2023-05-10T08:07:07;97228.75;;;18.44;45.49
9746;BME280;4912;50.836;12.958;2023-05-10T08:09:43;97230.66;;;18.35;45.36
9746;BME280;4912;50.836;12.958;2023-05-10T08:12:23;97230.59;;;18.22;45.94
9746;BME280;4912;50.836;12.958;2023-05-10T08:14:53;97230.47;;;18.15;45.91
9746;BME280;4912;50.836;12.958;2023-05-10T08:17:23;97244.44;;;18.02;46.50
9746;BME280;4912;50.836;12.958;2023-05-10T08:19:54;97238.50;;;18.05;46.88
9746;BME280;4912;50.836;12.958;2023-05-10T08:22:27;97238.44;;;17.92;46.94
9746;BME280;4912;50.836;12.958;2023-05-10T08:25:00;97251.16;;;17.93;47.10
9746;BME280;4912;50.836;12.958;2023-05-10T08:27:30;97253.13;;;17.79;47.49
9746;BME280;4912;50.836;12.958;2023-05-10T08:30:00;97250.31;;;17.79;47.06
9746;BME280;4912;50.836;12.958;2023-05-10T08:32:31;97251.09;;;17.80;47.91
9746;BME280;4912;50.836;12.958;2023-05-10T08:35:01;97256.59;;;17.85;47.74
9746;BME280;4912;50.836;12.958;2023-05-10T08:37:32;97259.03;;;17.76;47.97
9746;BME280;4912;50.836;12.958;2023-05-10T08:40:06;97267.50;;;17.70;47.95
9746;BME280;4912;50.836;12.958;2023-05-10T08:42:39;97265.72;;;17.73;48.30
9746;BME280;4912;50.836;12.958;2023-05-10T08:45:10;97268.19;;;17.76;48.17
9746;BME280;4912;50.836;12.958;2023-05-10T08:47:41;97262.75;;;17.65;48.67
9746;BME280;4912;50.836;12.958;2023-05-10T08:50:11;97264.06;;;17.58;49.07
9746;BME280;4912;50.836;12.958;2023-05-10T08:52:41;97264.19;;;17.72;48.95
9746;BME280;4912;50.836;12.958;2023-05-10T08:55:17;97281.09;;;17.79;48.70
9746;BME280;4912;50.836;12.958;2023-05-10T08:57:50;97266.88;;;17.58;48.87
9746;BME280;4912;50.836;12.958;2023-05-10T09:00:20;97275.84;;;17.51;49.13
9746;BME280;4912;50.836;12.958;2023-05-10T09:02:53;97275.56;;;17.55;49.34
9746;BME280;4912;50.836;12.958;2023-05-10T09:05:24;97276.78;;;17.59;49.58
9746;BME280;4912;50.836;12.958;2023-05-10T09:07:54;97283.03;;;17.71;49.72
9746;BME280;4912;50.836;12.958;2023-05-10T09:10:28;97289.44;;;17.85;48.64
9746;BME280;4912;50.836;12.958;2023-05-10T09:12:59;97284.91;;;17.82;48.76
9746;BME280;4912;50.836;12.958;2023-05-10T09:15:30;97292.00;;;17.83;48.92
9746;BME280;4912;50.836;12.958;2023-05-10T09:18:00;97294.97;;;17.90;49.64
9746;BME280;4912;50.836;12.958;2023-05-10T09:20:32;97296.94;;;17.77;50.48
9746;BME280;4912;50.836;12.958;2023-05-10T09:23:02;97308.72;;;17.70;52.04
9746;BME280;4912;50.836;12.958;2023-05-10T09:25:35;97314.19;;;17.56;52.14
9746;BME280;4912;50.836;12.958;2023-05-10T09:28:08;97321.38;;;17.52;52.41
9746;BME280;4912;50.836;12.958;2023-05-10T09:30:39;97321.25;;;17.39;52.23
9746;BME280;4912;50.836;12.958;2023-05-10T09:33:10;97331.81;;;17.27;53.13
9746;BME280;4912;50.836;12.958;2023-05-10T09:35:40;97331.75;;;17.08;53.69
9746;BME280;4912;50.836;12.958;2023-05-10T09:38:10;97331.66;;;16.95;53.88
9746;BME280;4912;50.836;12.958;2023-05-10T09:40:43;97333.50;;;16.87;54.02
9746;BME280;4912;50.836;12.958;2023-05-10T09:43:24;97324.13;;;16.85;54.31
9746;BME280;4912;50.836;12.958;2023-05-10T09:45:55;97328.00;;;16.76;54.39
9746;BME280;4912;50.836;12.958;2023-05-10T09:48:25;97331.81;;;16.78;54.87
9746;BME280;4912;50.836;12.958;2023-05-10T09:50:56;97342.88;;;16.60;54.67
9746;BME280;4912;50.836;12.958;2023-05-10T09:53:29;97340.09;;;16.54;55.08
9746;BME280;4912;50.836;12.958;2023-05-10T09:56:02;97339.88;;;16.47;55.35
9746;BME280;4912;50.836;12.958;2023-05-10T09:58:33;97341.22;;;16.40;55.42
9746;BME280;4912;50.836;12.958;2023-05-10T10:01:10;97346.63;;;16.27;55.38
9746;BME280;4912;50.836;12.958;2023-05-10T10:03:41;97342.50;;;16.33;55.31
9746;BME280;4912;50.836;12.958;2023-05-10T10:06:12;97347.88;;;16.26;55.67
9746;BME280;4912;50.836;12.958;2023-05-10T10:08:56;97347.09;;;16.36;55.36
9746;BME280;4912;50.836;12.958;2023-05-10T10:11:29;97345.34;;;16.28;55.96
9746;BME280;4912;50.836;12.958;2023-05-10T10:13:59;97350.16;;;16.27;56.36
9746;BME280;4912;50.836;12.958;2023-05-10T10:16:29;97354.72;;;16.30;57.62
9746;BME280;4912;50.836;12.958;2023-05-10T10:19:00;97353.25;;;16.24;58.90
9746;BME280;4912;50.836;12.958;2023-05-10T10:21:31;97351.88;;;16.01;60.24
9746;BME280;4912;50.836;12.958;2023-05-10T10:24:01;97351.63;;;15.98;59.55
9746;BME280;4912;50.836;12.958;2023-05-10T10:26:35;97354.09;;;16.13;59.44
9746;BME280;4912;50.836;12.958;2023-05-10T10:29:08;97353.50;;;16.20;58.85
9746;BME280;4912;50.836;12.958;2023-05-10T10:31:45;97343.69;;;16.14;58.68
9746;BME280;4912;50.836;12.958;2023-05-10T10:34:21;97351.97;;;16.25;58.42
9746;BME280;4912;50.836;12.958;2023-05-10T10:36:56;97352.97;;;16.27;58.46
9746;BME280;4912;50.836;12.958;2023-05-10T10:39:27;97348.81;;;16.39;58.39
9746;BME280;4912;50.836;12.958;2023-05-10T10:42:00;97345.81;;;16.32;57.94
9746;BME280;4912;50.836;12.958;2023-05-10T10:44:34;97349.19;;;16.25;57.84
9746;BME280;4912;50.836;12.958;2023-05-10T10:47:09;97354.00;;;16.24;57.53
9746;BME280;4912;50.836;12.958;2023-05-10T10:50:02;97360.88;;;16.23;57.79
9746;BME280;4912;50.836;12.958;2023-05-10T10:52:34;97347.41;;;16.22;56.61
9746;BME280;4912;50.836;12.958;2023-05-10T10:55:06;97353.81;;;16.11;56.71
9746;BME280;4912;50.836;12.958;2023-05-10T10:57:46;97355.56;;;16.14;56.76
9746;BME280;4912;50.836;12.958;2023-05-10T11:00:22;97362.66;;;16.21;56.38
9746;BME280;4912;50.836;12.958;2023-05-10T11:02:58;97365.13;;;16.30;55.78
9746;BME280;4912;50.836;12.958;2023-05-10T11:05:39;97361.38;;;16.22;56.14
9746;BME280;4912;50.836;12.958;2023-05-10T11:08:11;97364.72;;;16.15;56.03
9746;BME280;4912;50.836;12.958;2023-05-10T11:10:49;97368.78;;;16.14;56.19
9746;BME280;4912;50.836;12.958;2023-05-10T11:13:37;97363.69;;;16.18;56.33
9746;BME280;4912;50.836;12.958;2023-05-10T11:16:13;97365.97;;;16.19;56.04
9746;BME280;4912;50.836;12.958;2023-05-10T11:18:53;97374.09;;;16.17;55.87
9746;BME280;4912;50.836;12.958;2023-05-10T11:21:26;97364.41;;;16.24;55.64
9746;BME280;4912;50.836;12.958;2023-05-10T11:23:57;97375.06;;;16.25;55.87
9746;BME280;4912;50.836;12.958;2023-05-10T11:26:33;97371.59;;;16.14;56.59
9746;BME280;4912;50.836;12.958;2023-05-10T11:29:07;97375.84;;;16.20;56.60
9746;BME280;4912;50.836;12.958;2023-05-10T11:31:41;97379.81;;;16.36;56.12
9746;BME280;4912;50.836;12.958;2023-05-10T11:34:22;97378.84;;;16.28;56.13
9746;BME280;4912;50.836;12.958;2023-05-10T11:36:54;97391.84;;;16.20;57.38
9746;BME280;4912;50.836;12.958;2023-05-10T11:39:28;97384.97;;;16.21;58.01
9746;BME280;4912;50.836;12.958;2023-05-10T11:41:59;97388.50;;;16.27;58.89
9746;BME280;4912;50.836;12.958;2023-05-10T11:44:32;97391.31;;;16.21;60.27
9746;BME280;4912;50.836;12.958;2023-05-10T11:47:05;97398.06;;;15.96;63.42
9746;BME280;4912;50.836;12.958;2023-05-10T11:49:35;97401.34;;;16.00;65.50
9746;BME280;4912;50.836;12.958;2023-05-10T11:52:05;97405.69;;;15.95;67.42
9746;BME280;4912;50.836;12.958;2023-05-10T11:54:37;97412.03;;;15.85;68.83
9746;BME280;4912;50.836;12.958;2023-05-10T11:57:07;97405.78;;;15.62;71.87
9746;BME280;4912;50.836;12.958;2023-05-10T11:59:40;97416.44;;;15.58;73.42
9746;BME280;4912;50.836;12.958;2023-05-10T12:02:11;97412.63;;;15.55;74.84
9746;BME280;4912;50.836;12.958;2023-05-10T12:04:41;97411.34;;;15.51;75.57
9746;BME280;4912;50.836;12.958;2023-05-10T12:07:12;97415.66;;;15.63;75.96
9746;BME280;4912;50.836;12.958;2023-05-10T12:09:42;97411.59;;;15.64;75.55
9746;BME280;4912;50.836;12.958;2023-05-10T12:12:15;97415.41;;;15.67;76.39
9746;BME280;4912;50.836;12.958;2023-05-10T12:14:51;97413.63;;;15.69;77.03
9746;BME280;4912;50.836;12.958;2023-05-10T12:17:21;97420.69;;;15.81;77.61
9746;BME280;4912;50.836;12.958;2023-05-10T12:19:52;97417.63;;;15.79;77.71
9746;BME280;4912;50.836;12.958;2023-05-10T12:22:22;97423.19;;;15.96;77.96
9746;BME280;4912;50.836;12.958;2023-05-10T12:24:52;97424.91;;;16.05;77.93
9746;BME280;4912;50.836;12.958;2023-05-10T12:27:22;97421.81;;;16.14;77.22
9746;BME280;4912;50.836;12.958;2023-05-10T12:29:55;97418.47;;;16.21;77.98
9746;BME280;4912;50.836;12.958;2023-05-10T12:32:38;97420.00;;;16.22;77.08
9746;BME280;4912;50.836;12.958;2023-05-10T12:35:12;97430.72;;;16.07;76.89
9746;BME280;4912;50.836;12.958;2023-05-10T12:37:42;97431.25;;;16.05;78.03
9746;BME280;4912;50.836;12.958;2023-05-10T12:40:13;97430.19;;;16.14;77.91
9746;BME280;4912;50.836;12.958;2023-05-10T12:42:43;97433.00;;;16.08;78.06
9746;BME280;4912;50.836;12.958;2023-05-10T12:45:18;97432.97;;;16.19;78.04
9746;BME280;4912;50.836;12.958;2023-05-10T12:47:48;97433.19;;;16.21;77.89
9746;BME280;4912;50.836;12.958;2023-05-10T12:50:19;97434.25;;;16.13;78.34
9746;BME280;4912;50.836;12.958;2023-05-10T12:52:53;97437.06;;;16.13;78.30
9746;BME280;4912;50.836;12.958;2023-05-10T12:55:23;97430.69;;;16.18;77.54
9746;BME280;4912;50.836;12.958;2023-05-10T12:57:53;97431.69;;;16.15;78.15
9746;BME280;4912;50.836;12.958;2023-05-10T13:00:26;97440.28;;;16.28;78.75
9746;BME280;4912;50.836;12.958;2023-05-10T13:02:56;97430.00;;;16.47;78.48
9746;BME280;4912;50.836;12.958;2023-05-10T13:05:27;97428.97;;;16.50;78.29
9746;BME280;4912;50.836;12.958;2023-05-10T13:07:57;97435.06;;;16.54;77.61
9746;BME280;4912;50.836;12.958;2023-05-10T13:10:28;97423.19;;;16.43;77.73
9746;BME280;4912;50.836;12.958;2023-05-10T13:12:59;97427.44;;;16.60;77.80
9746;BME280;4912;50.836;12.958;2023-05-10T13:15:32;97425.03;;;16.75;77.07
9746;BME280;4912;50.836;12.958;2023-05-10T13:18:02;97419.03;;;16.96;77.92
9746;BME280;4912;50.836;12.958;2023-05-10T13:20:32;97423.28;;;17.02;76.25
9746;BME280;4912;50.836;12.958;2023-05-10T13:23:02;97418.94;;;17.07;76.51
9746;BME280;4912;50.836;12.958;2023-05-10T13:25:35;97419.41;;;17.11;75.58
9746;BME280;4912;50.836;12.958;2023-05-10T13:28:05;97415.38;;;17.36;74.76
9746;BME280;4912;50.836;12.958;2023-05-10T13:30:38;97410.47;;;17.42;74.29
9746;BME280;4912;50.836;12.958;2023-05-10T13:33:11;97416.13;;;17.67;74.39
9746;BME280;4912;50.836;12.958;2023-05-10T13:35:41;97414.53;;;17.71;73.93
9746;BME280;4912;50.836;12.958;2023-05-10T13:38:12;97416.13;;;17.67;74.05
9746;BME280;4912;50.836;12.958;2023-05-10T13:40:42;97413.63;;;17.57;74.47